Time;durP1;ratioP1;P1;durP2;ratioP2;P2;SDS_P1;SDS_P2;PMS_P1;PMS_P2;Temp;Humidity;BMP_temperature;BMP_pressure;BME280_temperature;BME280_humidity;BME280_pressure;Samples;Min_cycle;Max_cycle;Signal;HPM_P1;HPM_P2
2023/12/18 00:03:21;;;;;;;13.90;6.30;;;;;;;5.55;100.00;101675.43;216863;1295;139757;-93
2023/12/18 00:08:21;;;;;;;13.60;6.10;;;;;;;5.59;100.00;101673.59;217525;1294;138754;-92
2023/12/18 00:13:22;;;;;;;13.80;5.90;;;;;;;5.63;100.00;101667.13;216730;1295;140611;-91
2023/12/18 00:18:22;;;;;;;11.30;5.70;;;;;;;5.68;100.00;101674.48;217356;1295;139203;-90
2023/12/18 00:23:23;;;;;;;18.70;6.00;;;;;;;5.74;100.00;101665.46;216806;1294;140131;-90
2023/12/18 00:28:23;;;;;;;13.50;5.40;;;;;;;5.79;100.00;101660.36;217427;1295;110608;-92
2023/12/18 00:33:24;;;;;;;13.90;5.80;;;;;;;5.85;100.00;101659.40;216855;1296;140511;-92
2023/12/18 00:38:25;;;;;;;12.60;5.80;;;;;;;5.92;100.00;101661.47;217408;1294;139004;-91
2023/12/18 00:43:25;;;;;;;11.40;5.70;;;;;;;5.97;100.00;101647.77;216871;1295;139916;-91
2023/12/18 00:48:26;;;;;;;11.90;5.90;;;;;;;6.04;100.00;101647.95;217399;1295;139961;-90
2023/12/18 00:53:26;;;;;;;15.10;6.20;;;;;;;6.09;100.00;101645.38;216931;1295;141566;-91
2023/12/18 00:58:26;;;;;;;12.60;6.10;;;;;;;6.14;100.00;101647.03;217462;1294;139905;-90
2023/12/18 01:03:28;;;;;;;13.10;5.80;;;;;;;6.19;100.00;101651.55;216918;1293;140894;-92
2023/12/18 01:08:29;;;;;;;14.30;6.20;;;;;;;6.22;100.00;101643.60;217321;1295;139627;-90
2023/12/18 01:13:29;;;;;;;14.40;6.50;;;;;;;6.26;100.00;101649.89;216862;1295;141344;-90
2023/12/18 01:18:30;;;;;;;13.10;6.40;;;;;;;6.29;100.00;101646.50;217444;1295;139528;-90
2023/12/18 01:23:30;;;;;;;14.40;6.80;;;;;;;6.31;100.00;101643.02;216916;1294;140778;-90
2023/12/18 01:28:31;;;;;;;12.60;6.20;;;;;;;6.33;100.00;101642.89;217276;1296;138870;-91
2023/12/18 01:33:32;;;;;;;17.80;7.90;;;;;;;6.36;100.00;101642.66;217047;1294;139836;-91
2023/12/18 01:38:32;;;;;;;14.40;6.70;;;;;;;6.38;100.00;101645.06;217464;1296;138942;-90
2023/12/18 01:43:35;;;;;;;15.70;6.80;;;;;;;6.40;100.00;101638.44;216998;1293;139914;-90
2023/12/18 01:48:36;;;;;;;15.40;7.20;;;;;;;6.41;100.00;101629.42;217441;1293;139979;-90
2023/12/18 01:53:42;;;;;;;15.00;7.10;;;;;;;6.43;100.00;101631.23;217023;1294;139967;-91
2023/12/18 01:58:44;;;;;;;16.20;8.80;;;;;;;6.45;100.00;101632.75;217252;1295;139606;-92
2023/12/18 02:03:45;;;;;;;17.40;8.80;;;;;;;6.47;100.00;101633.61;216865;1295;139727;-91
2023/12/18 02:08:45;;;;;;;18.30;9.10;;;;;;;6.48;100.00;101642.27;217341;1294;139198;-90
2023/12/18 02:13:46;;;;;;;16.40;8.50;;;;;;;6.52;100.00;101647.52;216750;1294;140154;-90
2023/12/18 02:18:47;;;;;;;19.90;8.90;;;;;;;6.55;100.00;101639.05;217481;1293;139320;-90
2023/12/18 02:23:51;;;;;;;19.50;8.40;;;;;;;6.58;100.00;101633.40;216874;1295;140395;-91
2023/12/18 02:28:51;;;;;;;16.70;9.20;;;;;;;6.60;100.00;101619.44;217432;1295;139005;-92
2023/12/18 02:33:52;;;;;;;15.40;8.70;;;;;;;6.62;100.00;101620.50;217046;1295;140122;-91
2023/12/18 02:38:52;;;;;;;15.30;8.70;;;;;;;6.64;100.00;101613.52;217408;1296;139325;-89
2023/12/18 02:43:53;;;;;;;19.40;8.50;;;;;;;6.67;100.00;101607.95;216977;1294;140284;-90
2023/12/18 02:48:54;;;;;;;16.50;7.90;;;;;;;6.70;100.00;101600.91;217460;1296;139400;-92
2023/12/18 02:53:55;;;;;;;18.00;9.60;;;;;;;6.73;100.00;101599.10;216785;1296;139677;-91
2023/12/18 02:58:55;;;;;;;17.40;9.40;;;;;;;6.75;100.00;101603.73;217350;1295;139804;-93
2023/12/18 03:03:56;;;;;;;16.00;9.20;;;;;;;6.76;100.00;101591.40;216911;1295;140768;-92
2023/12/18 03:08:57;;;;;;;19.60;9.20;;;;;;;6.79;100.00;101592.04;217309;1294;138844;-90
2023/12/18 03:13:57;;;;;;;21.10;12.20;;;;;;;6.82;100.00;101592.30;216895;1296;140288;-89
2023/12/18 03:18:58;;;;;;;20.70;10.60;;;;;;;6.84;100.00;101588.56;217479;1294;139626;-91
2023/12/18 03:23:58;;;;;;;23.30;10.50;;;;;;;6.87;100.00;101589.78;216935;1295;139904;-90
2023/12/18 03:28:59;;;;;;;18.50;9.10;;;;;;;6.89;100.00;101595.22;217510;1295;139667;-91
2023/12/18 03:33:59;;;;;;;20.70;10.20;;;;;;;6.90;100.00;101598.05;217053;1295;140800;-89
2023/12/18 03:39:00;;;;;;;20.30;10.20;;;;;;;6.91;100.00;101602.06;217527;1295;139656;-91
2023/12/18 03:44:00;;;;;;;22.60;10.90;;;;;;;6.91;100.00;101602.48;216955;1295;141625;-91
2023/12/18 03:49:01;;;;;;;20.20;11.40;;;;;;;6.93;100.00;101599.36;217407;1295;139083;-90
2023/12/18 03:54:02;;;;;;;20.10;10.50;;;;;;;6.95;100.00;101600.02;216983;1294;141045;-91
2023/12/18 03:59:03;;;;;;;22.30;11.20;;;;;;;6.97;100.00;101600.55;217310;1294;139167;-89
2023/12/18 04:04:04;;;;;;;20.90;11.50;;;;;;;6.98;100.00;101607.34;217051;1294;139910;-91
2023/12/18 04:09:04;;;;;;;23.10;10.90;;;;;;;6.99;100.00;101613.27;217417;1294;139052;-89
2023/12/18 04:14:05;;;;;;;28.40;13.10;;;;;;;7.02;100.00;101618.22;216962;1296;140058;-90
2023/12/18 04:19:05;;;;;;;20.60;11.60;;;;;;;7.03;100.00;101620.60;217457;1295;140451;-90
2023/12/18 04:24:06;;;;;;;20.30;10.90;;;;;;;7.04;100.00;101614.90;216837;1296;140762;-91
2023/12/18 04:29:06;;;;;;;23.60;12.20;;;;;;;7.04;100.00;101609.40;217347;1295;139431;-89
2023/12/18 04:34:07;;;;;;;27.20;13.10;;;;;;;7.05;100.00;101603.51;217087;1296;140256;-89
2023/12/18 04:39:07;;;;;;;29.80;13.70;;;;;;;7.07;100.00;101593.35;217282;1295;139141;-91
2023/12/18 04:44:08;;;;;;;25.60;12.40;;;;;;;7.09;100.00;101599.23;216964;1294;142157;-88
2023/12/18 04:49:12;;;;;;;28.00;13.40;;;;;;;7.10;100.00;101597.94;217310;1294;139394;-91
2023/12/18 04:54:13;;;;;;;21.10;11.80;;;;;;;7.12;100.00;101603.74;216831;1295;140261;-89
2023/12/18 04:59:14;;;;;;;24.00;12.10;;;;;;;7.12;100.00;101599.52;217311;1296;139340;-91
2023/12/18 05:04:15;;;;;;;23.00;12.00;;;;;;;7.13;100.00;101614.28;216957;1295;140141;-88
2023/12/18 05:09:15;;;;;;;22.70;10.80;;;;;;;7.13;100.00;101609.86;217363;1295;139913;-90
2023/12/18 05:14:17;;;;;;;25.20;13.10;;;;;;;7.12;100.00;101604.05;216948;1296;140117;-91
2023/12/18 05:19:17;;;;;;;20.10;11.70;;;;;;;7.14;100.00;101602.73;217253;1296;139140;-89
2023/12/18 05:24:18;;;;;;;21.80;11.00;;;;;;;7.16;100.00;101600.71;216958;1294;140742;-91
2023/12/18 05:29:18;;;;;;;18.90;11.30;;;;;;;7.17;100.00;101602.80;217512;1294;139042;-90
2023/12/18 05:34:19;;;;;;;23.60;11.70;;;;;;;7.19;100.00;101598.33;216903;1294;139885;-89
2023/12/18 05:39:19;;;;;;;22.00;11.30;;;;;;;7.19;100.00;101600.20;217512;1296;138980;-90
2023/12/18 05:44:20;;;;;;;21.80;12.00;;;;;;;7.20;100.00;101601.41;216922;1296;140411;-91
2023/12/18 05:49:20;;;;;;;19.70;11.30;;;;;;;7.20;100.00;101606.36;217297;1294;140327;-92
2023/12/18 05:54:21;;;;;;;21.40;10.60;;;;;;;7.20;100.00;101597.73;216923;1295;140317;-89
2023/12/18 05:59:21;;;;;;;21.60;12.00;;;;;;;7.19;100.00;101594.49;217499;1295;139249;-90
2023/12/18 06:04:22;;;;;;;22.90;11.80;;;;;;;7.20;100.00;101597.35;216826;1296;141621;-92
2023/12/18 06:09:22;;;;;;;22.90;10.80;;;;;;;7.21;100.00;101594.09;217420;1294;138806;-89
2023/12/18 06:14:23;;;;;;;21.00;10.90;;;;;;;7.20;100.00;101596.41;216904;1295;143452;-89
2023/12/18 06:19:23;;;;;;;22.40;12.10;;;;;;;7.20;100.00;101599.64;217427;1296;139225;-89
2023/12/18 06:24:24;;;;;;;22.40;11.80;;;;;;;7.20;100.00;101606.43;216865;1294;140400;-89
2023/12/18 06:29:27;;;;;;;23.10;11.60;;;;;;;7.21;100.00;101623.21;217451;1294;139558;-89
2023/12/18 06:34:28;;;;;;;19.90;11.70;;;;;;;7.20;100.00;101627.64;216864;1295;140617;-89
2023/12/18 06:39:28;;;;;;;17.20;10.40;;;;;;;7.19;100.00;101629.38;217531;1296;96576;-87
2023/12/18 06:44:29;;;;;;;20.50;11.20;;;;;;;7.17;100.00;101637.58;216694;1295;139882;-88
2023/12/18 06:49:29;;;;;;;21.90;10.90;;;;;;;7.18;100.00;101643.04;217427;1295;139763;-89
2023/12/18 06:54:30;;;;;;;23.70;11.70;;;;;;;7.17;100.00;101645.29;216879;1295;140090;-89
2023/12/18 06:59:30;;;;;;;21.20;11.30;;;;;;;7.17;100.00;101633.52;217433;1293;140039;-90
2023/12/18 07:04:30;;;;;;;26.10;11.70;;;;;;;7.16;100.00;101641.00;216942;1295;140091;-90
2023/12/18 07:09:31;;;;;;;24.10;13.10;;;;;;;7.17;100.00;101636.59;217707;1295;97017;-87
2023/12/18 07:14:32;;;;;;;20.60;11.40;;;;;;;7.18;100.00;101642.04;216926;1295;140572;-89
2023/12/18 07:19:33;;;;;;;24.60;11.50;;;;;;;7.18;100.00;101647.40;217173;1293;139793;-89
2023/12/18 07:24:33;;;;;;;25.10;12.80;;;;;;;7.17;100.00;101653.02;216937;1295;141430;-89
2023/12/18 07:29:34;;;;;;;23.40;12.70;;;;;;;7.17;100.00;101657.40;217306;1295;140119;-89
2023/12/18 07:34:34;;;;;;;23.10;12.50;;;;;;;7.17;100.00;101654.02;216881;1296;139945;-89
2023/12/18 07:39:35;;;;;;;20.80;12.10;;;;;;;7.16;100.00;101660.45;217559;1296;96118;-90
2023/12/18 07:44:35;;;;;;;23.10;12.80;;;;;;;7.17;100.00;101665.02;216988;1294;139713;-88
2023/12/18 07:49:36;;;;;;;22.70;12.80;;;;;;;7.16;100.00;101656.56;217370;1296;140129;-89
2023/12/18 07:54:36;;;;;;;24.20;12.30;;;;;;;7.17;100.00;101661.36;216954;1295;140201;-88
2023/12/18 07:59:39;;;;;;;27.60;12.90;;;;;;;7.18;100.00;101667.02;217466;1295;139017;-88
2023/12/18 08:04:39;;;;;;;23.30;13.40;;;;;;;7.18;100.00;101662.34;216910;1296;140515;-88
2023/12/18 08:09:41;;;;;;;29.90;13.50;;;;;;;7.19;100.00;101653.64;217407;1295;96486;-88
2023/12/18 08:14:43;;;;;;;24.30;13.30;;;;;;;7.19;100.00;101655.81;216826;1295;141409;-89
2023/12/18 08:19:47;;;;;;;26.40;15.50;;;;;;;7.21;100.00;101664.98;217142;1296;140833;-88
2023/12/18 08:24:48;;;;;;;26.70;14.60;;;;;;;7.22;100.00;101670.10;217406;1296;139124;-89
2023/12/18 08:29:48;;;;;;;32.10;16.00;;;;;;;7.21;100.00;101671.95;216960;1296;140817;-89
2023/12/18 08:34:50;;;;;;;30.30;15.40;;;;;;;7.22;100.00;101677.38;217466;1294;139561;-89
2023/12/18 08:39:50;;;;;;;28.30;13.70;;;;;;;7.24;100.00;101675.73;216902;1295;140290;-89
2023/12/18 08:44:51;;;;;;;24.60;13.30;;;;;;;7.24;100.00;101669.98;217309;1295;139717;-88
2023/12/18 08:49:52;;;;;;;26.30;13.80;;;;;;;7.25;100.00;101666.50;216937;1296;140345;-88
2023/12/18 08:54:52;;;;;;;25.00;12.70;;;;;;;7.28;100.00;101668.73;217442;1295;139833;-89
2023/12/18 08:59:54;;;;;;;24.70;13.70;;;;;;;7.31;100.00;101669.27;216935;1298;141380;-86
2023/12/18 09:04:54;;;;;;;23.70;12.70;;;;;;;7.33;100.00;101663.48;217490;1295;139879;-89
2023/12/18 09:09:55;;;;;;;23.20;13.90;;;;;;;7.34;100.00;101674.48;216869;1296;140536;-87
2023/12/18 09:14:55;;;;;;;31.50;14.70;;;;;;;7.35;100.00;101661.23;217496;1296;138930;-88
2023/12/18 09:19:56;;;;;;;30.30;15.10;;;;;;;7.38;100.00;101660.33;216972;1296;141364;-87
2023/12/18 09:24:56;;;;;;;27.30;13.90;;;;;;;7.39;100.00;101657.38;217313;1296;139053;-86
2023/12/18 09:29:57;;;;;;;26.70;14.50;;;;;;;7.38;100.00;101647.59;216946;1295;141928;-88
2023/12/18 09:35:01;;;;;;;26.20;13.00;;;;;;;7.41;100.00;101633.47;217405;1294;139701;-89
2023/12/18 09:40:03;;;;;;;28.50;14.10;;;;;;;7.41;100.00;101626.84;217020;1295;139801;-88
2023/12/18 09:45:05;;;;;;;24.20;13.00;;;;;;;7.42;100.00;101629.23;217389;1296;138908;-87
2023/12/18 09:50:07;;;;;;;32.00;14.80;;;;;;;7.45;100.00;101637.80;216716;1297;265834;-88
2023/12/18 09:55:08;;;;;;;25.10;13.30;;;;;;;7.47;100.00;101647.73;217522;1295;140169;-90
2023/12/18 10:00:12;;;;;;;23.10;13.00;;;;;;;7.45;100.00;101629.08;216920;1295;140301;-89
2023/12/18 10:05:12;;;;;;;28.00;13.50;;;;;;;7.45;100.00;101630.44;217495;1296;139618;-89
2023/12/18 10:10:13;;;;;;;25.90;13.10;;;;;;;7.47;100.00;101635.13;217050;1296;140533;-89
2023/12/18 10:15:16;;;;;;;22.20;13.40;;;;;;;7.51;100.00;101635.86;217436;1296;140099;-89
2023/12/18 10:20:17;;;;;;;23.70;12.50;;;;;;;7.52;100.00;101625.16;216986;1295;141057;-88
2023/12/18 10:25:22;;;;;;;28.60;13.20;;;;;;;7.53;100.00;101620.07;217343;1293;139353;-88
2023/12/18 10:30:29;;;;;;;29.10;14.80;;;;;;;7.55;100.00;101629.13;216976;1294;140601;-90
2023/12/18 10:35:31;;;;;;;25.70;12.50;;;;;;;7.56;100.00;101634.05;217220;1296;139257;-89
2023/12/18 10:40:32;;;;;;;25.70;13.10;;;;;;;7.56;100.00;101616.83;217030;1296;140875;-89
2023/12/18 10:45:34;;;;;;;25.40;12.80;;;;;;;7.57;100.00;101602.16;217446;1295;95963;-89
2023/12/18 10:50:36;;;;;;;25.10;13.80;;;;;;;7.60;100.00;101596.34;216779;1296;140554;-90
2023/12/18 10:55:38;;;;;;;24.30;13.50;;;;;;;7.65;100.00;101607.96;217276;1295;140684;-89
2023/12/18 11:00:39;;;;;;;24.60;13.60;;;;;;;7.67;100.00;101601.69;216926;1296;140397;-88
2023/12/18 11:05:41;;;;;;;23.10;13.90;;;;;;;7.67;100.00;101595.22;217466;1296;139524;-88
2023/12/18 11:10:42;;;;;;;24.70;14.30;;;;;;;7.69;100.00;101603.92;216893;1298;140133;-90
2023/12/18 11:16:01;;;;;;;29.90;14.30;;;;;;;7.70;100.00;101607.71;217489;1295;96794;-90
2023/12/18 11:21:01;;;;;;;28.90;14.10;;;;;;;7.70;100.00;101601.91;216829;1295;140589;-89
2023/12/18 11:26:04;;;;;;;26.40;15.00;;;;;;;7.72;100.00;101595.88;217458;1296;139281;-90
2023/12/18 11:31:06;;;;;;;25.80;14.60;;;;;;;7.70;100.00;101585.40;216793;1295;141069;-90
2023/12/18 11:36:09;;;;;;;29.30;15.30;;;;;;;7.71;100.00;101578.63;217417;1296;139208;-90
2023/12/18 11:41:40;;;;;;;28.30;13.60;;;;;;;7.69;100.00;101573.45;216906;1294;140778;-89
2023/12/18 11:46:41;;;;;;;31.80;14.60;;;;;;;7.68;100.00;101569.44;217445;1295;139293;-88
2023/12/18 11:51:42;;;;;;;29.20;13.80;;;;;;;7.67;100.00;101562.95;217046;1296;140158;-91
2023/12/18 11:56:43;;;;;;;25.90;14.30;;;;;;;7.65;100.00;101563.95;217330;1295;139094;-88
2023/12/18 12:01:45;;;;;;;25.80;14.00;;;;;;;7.63;100.00;101565.06;216652;1296;140426;-89
2023/12/18 12:06:47;;;;;;;23.90;13.70;;;;;;;7.63;100.00;101562.10;217460;1295;139036;-87
2023/12/18 12:11:48;;;;;;;25.90;13.70;;;;;;;7.62;100.00;101568.61;216814;1295;140259;-90
2023/12/18 12:17:01;;;;;;;21.30;12.70;;;;;;;7.60;100.00;101575.04;217546;1295;139116;-88
2023/12/18 12:22:02;;;;;;;27.70;14.30;;;;;;;7.58;100.00;101582.39;217035;1295;140027;-89
2023/12/18 12:27:03;;;;;;;26.70;14.30;;;;;;;7.53;100.00;101580.22;217503;1295;139537;-89
2023/12/18 12:32:04;;;;;;;26.30;14.50;;;;;;;7.48;100.00;101573.40;216946;1295;140609;-89
2023/12/18 12:37:05;;;;;;;27.60;15.50;;;;;;;7.43;100.00;101577.30;217487;1295;139353;-89
2023/12/18 12:42:06;;;;;;;27.10;14.30;;;;;;;7.40;100.00;101576.16;216943;1296;141219;-88
2023/12/18 12:47:06;;;;;;;25.40;14.60;;;;;;;7.37;100.00;101580.55;217455;1295;139709;-89
2023/12/18 12:52:07;;;;;;;23.70;15.00;;;;;;;7.34;100.00;101578.62;216991;1295;141662;-87
2023/12/18 12:57:07;;;;;;;27.30;15.40;;;;;;;7.32;100.00;101582.85;217498;1294;228935;-89
2023/12/18 13:02:08;;;;;;;24.00;14.20;;;;;;;7.31;100.00;101581.15;216957;1295;140474;-90
2023/12/18 13:07:09;;;;;;;26.20;13.50;;;;;;;7.30;100.00;101577.45;217487;1296;139969;-90
2023/12/18 13:12:14;;;;;;;28.20;14.60;;;;;;;7.29;100.00;101578.03;216947;1295;140403;-89
2023/12/18 13:17:15;;;;;;;27.60;13.50;;;;;;;7.28;100.00;101579.64;217447;1295;139687;-90
2023/12/18 13:22:16;;;;;;;24.30;13.70;;;;;;;7.27;100.00;101591.46;217038;1295;141530;-89
2023/12/18 13:27:17;;;;;;;22.60;13.00;;;;;;;7.25;100.00;101596.17;217331;1296;139244;-88
2023/12/18 13:32:18;;;;;;;25.90;13.40;;;;;;;7.24;100.00;101596.52;216923;1298;140692;-89
2023/12/18 13:37:19;;;;;;;25.50;14.10;;;;;;;7.22;100.00;101594.61;217523;1296;139805;-89
2023/12/18 13:42:19;;;;;;;25.00;13.80;;;;;;;7.18;100.00;101592.42;216923;1294;141928;-90
2023/12/18 13:47:20;;;;;;;22.40;13.70;;;;;;;7.15;100.00;101590.66;217479;1295;139126;-91
2023/12/18 13:52:21;;;;;;;25.60;14.10;;;;;;;7.11;100.00;101591.02;217058;1296;140377;-91
2023/12/18 13:57:21;;;;;;;26.30;14.50;;;;;;;7.07;100.00;101592.32;217303;1295;138874;-90
2023/12/18 14:02:22;;;;;;;24.80;14.20;;;;;;;7.04;100.00;101588.59;216948;1295;140267;-91
2023/12/18 14:07:22;;;;;;;26.80;15.20;;;;;;;7.03;100.00;101585.59;217488;1295;139711;-89
2023/12/18 14:12:23;;;;;;;26.50;14.20;;;;;;;7.00;100.00;101586.05;216972;1296;140557;-91
2023/12/18 14:17:24;;;;;;;27.40;15.40;;;;;;;6.95;100.00;101591.86;217526;1295;140619;-92
2023/12/18 14:22:24;;;;;;;26.30;14.90;;;;;;;6.92;100.00;101602.16;216999;1294;139898;-90
2023/12/18 14:27:24;;;;;;;21.70;13.30;;;;;;;6.93;100.00;101597.50;217484;1296;139085;-90
2023/12/18 14:32:25;;;;;;;26.80;13.00;;;;;;;6.93;100.00;101599.14;216918;1297;140514;-90
2023/12/18 14:37:25;;;;;;;26.60;14.30;;;;;;;6.92;100.00;101594.18;217467;1294;139772;-91
2023/12/18 14:42:26;;;;;;;21.90;12.90;;;;;;;6.92;100.00;101595.80;216951;1295;140308;-90
2023/12/18 14:47:27;;;;;;;26.50;14.40;;;;;;;6.92;100.00;101591.28;217482;1295;139743;-90
2023/12/18 14:52:27;;;;;;;25.60;14.90;;;;;;;6.93;100.00;101582.33;216715;1295;140325;-89
2023/12/18 14:57:28;;;;;;;25.60;15.00;;;;;;;6.95;100.00;101584.20;217481;1294;96066;-90
2023/12/18 15:02:28;;;;;;;27.50;15.30;;;;;;;6.95;100.00;101575.86;216502;1296;140366;-89
2023/12/18 15:07:29;;;;;;;25.90;14.40;;;;;;;6.95;100.00;101567.99;216962;1295;140205;-90
2023/12/18 15:12:30;;;;;;;28.20;15.90;;;;;;;6.93;100.00;101561.21;216698;1296;140420;-88
2023/12/18 15:17:30;;;;;;;26.80;14.40;;;;;;;6.92;100.00;101560.06;217330;1295;139381;-89
2023/12/18 15:22:30;;;;;;;26.30;15.30;;;;;;;6.91;100.00;101566.85;216818;1295;140272;-89
2023/12/18 15:27:31;;;;;;;23.90;14.40;;;;;;;6.92;100.00;101567.56;217148;1296;96036;-89
2023/12/18 15:32:32;;;;;;;24.80;14.50;;;;;;;6.91;100.00;101560.99;216806;1295;141511;-90
2023/12/18 15:37:32;;;;;;;26.70;15.00;;;;;;;6.91;100.00;101555.80;217413;1295;139303;-89
2023/12/18 15:42:33;;;;;;;27.50;14.20;;;;;;;6.90;100.00;101551.91;216860;1295;140418;-89
2023/12/18 15:47:33;;;;;;;31.60;15.50;;;;;;;6.88;100.00;101555.52;217263;1295;139233;-89
2023/12/18 15:52:34;;;;;;;31.50;15.70;;;;;;;6.88;100.00;101545.38;216956;1294;141492;-88
2023/12/18 15:57:35;;;;;;;26.20;15.90;;;;;;;6.88;100.00;101540.64;217577;1294;95750;-90
2023/12/18 16:02:35;;;;;;;28.40;16.00;;;;;;;6.87;100.00;101547.96;216711;1295;139800;-90
2023/12/18 16:07:39;;;;;;;25.50;15.20;;;;;;;6.86;100.00;101550.02;217038;1295;139499;-89
2023/12/18 16:12:41;;;;;;;27.90;14.90;;;;;;;6.86;100.00;101536.98;216437;1295;140387;-91
2023/12/18 16:17:41;;;;;;;28.30;16.20;;;;;;;6.87;100.00;101524.11;217350;1296;139267;-89
2023/12/18 16:22:42;;;;;;;25.20;15.10;;;;;;;6.87;100.00;101521.20;216847;1295;140451;-91
2023/12/18 16:27:42;;;;;;;26.40;14.80;;;;;;;6.86;100.00;101518.92;217236;1297;96995;-90
2023/12/18 16:32:43;;;;;;;24.70;15.10;;;;;;;6.86;100.00;101515.48;216679;1295;140756;-90
2023/12/18 16:37:43;;;;;;;25.60;16.10;;;;;;;6.86;100.00;101511.75;217218;1295;139248;-90
2023/12/18 16:42:44;;;;;;;28.20;15.40;;;;;;;6.85;100.00;101517.92;216837;1295;140758;-90
2023/12/18 16:47:44;;;;;;;27.00;16.00;;;;;;;6.83;100.00;101510.26;217309;1295;140036;-90
2023/12/18 16:52:45;;;;;;;27.10;15.00;;;;;;;6.83;100.00;101501.42;216787;1295;140503;-91
2023/12/18 16:57:47;;;;;;;28.10;15.70;;;;;;;6.81;100.00;101493.82;217537;1295;96038;-90
2023/12/18 17:02:48;;;;;;;27.20;16.20;;;;;;;6.80;100.00;101487.39;216689;1296;140897;-92
2023/12/18 17:07:48;;;;;;;32.80;17.70;;;;;;;6.80;100.00;101480.34;217427;1295;140444;-91
2023/12/18 17:12:49;;;;;;;31.20;16.60;;;;;;;6.79;100.00;101490.54;216881;1296;151823;-90
2023/12/18 17:17:49;;;;;;;26.70;14.50;;;;;;;6.78;100.00;101478.98;217416;1295;140097;-91
2023/12/18 17:22:50;;;;;;;33.60;17.40;;;;;;;6.78;100.00;101469.25;216868;1296;142059;-91
2023/12/18 17:27:50;;;;;;;31.00;15.80;;;;;;;6.77;100.00;101466.09;217551;1294;96955;-91
2023/12/18 17:32:51;;;;;;;29.60;16.60;;;;;;;6.76;100.00;101461.02;216934;1295;140107;-91
2023/12/18 17:37:51;;;;;;;27.30;15.10;;;;;;;6.74;100.00;101458.38;217390;1296;139337;-91
2023/12/18 17:42:52;;;;;;;31.00;16.10;;;;;;;6.73;100.00;101454.09;216987;1294;140823;-88
2023/12/18 17:47:52;;;;;;;32.40;15.90;;;;;;;6.71;100.00;101446.28;217443;1294;139368;-92
2023/12/18 17:52:52;;;;;;;30.80;16.20;;;;;;;6.69;100.00;101425.89;216729;1296;140337;-90
2023/12/18 17:57:53;;;;;;;29.20;17.30;;;;;;;6.68;100.00;101424.98;217411;1295;96174;-91
2023/12/18 18:02:54;;;;;;;27.50;16.00;;;;;;;6.68;100.00;101435.90;216809;1295;140253;-90
2023/12/18 18:07:54;;;;;;;31.30;17.70;;;;;;;6.66;100.00;101432.06;217309;1295;139464;-91
2023/12/18 18:12:55;;;;;;;25.60;15.00;;;;;;;6.65;100.00;101433.14;216854;1293;140867;-91
2023/12/18 18:17:55;;;;;;;24.20;14.00;;;;;;;6.65;100.00;101424.52;217444;1296;139562;-91
2023/12/18 18:22:55;;;;;;;28.40;15.50;;;;;;;6.64;100.00;101413.45;216774;1294;140805;-90
2023/12/18 18:27:56;;;;;;;31.20;18.30;;;;;;;6.63;100.00;101398.03;217525;1295;96108;-89
2023/12/18 18:32:56;;;;;;;33.20;18.00;;;;;;;6.64;100.00;101393.05;216821;1295;141130;-90
2023/12/18 18:37:56;;;;;;;31.60;17.10;;;;;;;6.64;100.00;101388.32;217382;1296;141951;-90
2023/12/18 18:42:57;;;;;;;37.20;18.40;;;;;;;6.65;100.00;101382.87;216874;1296;141329;-90
2023/12/18 18:47:57;;;;;;;34.00;19.00;;;;;;;6.65;100.00;101380.54;217262;1294;139251;-92
2023/12/18 18:52:58;;;;;;;30.50;18.30;;;;;;;6.65;100.00;101380.14;216875;1296;140894;-91
2023/12/18 18:57:59;;;;;;;35.80;17.80;;;;;;;6.64;100.00;101379.02;217502;1295;107791;-90
2023/12/18 19:02:59;;;;;;;33.50;18.80;;;;;;;6.64;100.00;101367.71;216699;1295;140322;-90
2023/12/18 19:07:59;;;;;;;33.60;16.60;;;;;;;6.63;100.00;101367.08;217404;1294;140532;-91
2023/12/18 19:13:00;;;;;;;28.40;16.00;;;;;;;6.63;100.00;101364.58;216951;1293;211123;-91
2023/12/18 19:18:00;;;;;;;28.10;16.00;;;;;;;6.62;100.00;101373.13;217440;1296;139229;-90
2023/12/18 19:23:02;;;;;;;33.90;18.20;;;;;;;6.61;100.00;101371.75;216767;1294;142542;-91
2023/12/18 19:28:03;;;;;;;34.90;17.40;;;;;;;6.61;100.00;101366.89;217544;1294;96060;-91
2023/12/18 19:33:03;;;;;;;28.60;16.30;;;;;;;6.61;100.00;101345.34;216661;1295;140180;-89
2023/12/18 19:38:04;;;;;;;28.30;16.20;;;;;;;6.60;100.00;101333.04;217192;1294;139228;-90
2023/12/18 19:43:06;;;;;;;28.10;15.10;;;;;;;6.60;100.00;101319.50;216910;1294;140660;-91
2023/12/18 19:48:06;;;;;;;27.70;13.60;;;;;;;6.59;100.00;101321.82;217462;1296;139660;-91
2023/12/18 19:53:08;;;;;;;26.20;14.50;;;;;;;6.59;100.00;101316.18;216911;1295;140918;-92
2023/12/18 19:58:08;;;;;;;30.30;15.30;;;;;;;6.58;100.00;101308.60;217533;1296;106916;-91
2023/12/18 20:03:09;;;;;;;27.30;14.60;;;;;;;6.59;100.00;101297.45;216756;1294;140663;-90
2023/12/18 20:08:10;;;;;;;27.10;15.20;;;;;;;6.60;100.00;101296.69;217439;1295;138977;-92
2023/12/18 20:13:12;;;;;;;27.30;14.00;;;;;;;6.61;100.00;101312.50;216783;1295;140336;-89
2023/12/18 20:18:17;;;;;;;25.60;12.80;;;;;;;6.61;100.00;101306.10;217310;1295;139444;-91
2023/12/18 20:23:17;;;;;;;22.90;13.40;;;;;;;6.61;100.00;101307.20;216631;1295;140899;-91
2023/12/18 20:28:17;;;;;;;20.30;11.50;;;;;;;6.62;100.00;101310.77;217406;1295;96103;-92
2023/12/18 20:33:18;;;;;;;26.10;12.90;;;;;;;6.63;100.00;101293.13;216936;1294;140034;-91
2023/12/18 20:38:19;;;;;;;27.10;13.40;;;;;;;6.63;100.00;101266.42;217310;1296;139310;-89
2023/12/18 20:43:19;;;;;;;26.00;13.50;;;;;;;6.63;100.00;101262.76;216775;1294;140984;-92
2023/12/18 20:48:22;;;;;;;25.40;12.30;;;;;;;6.62;100.00;101250.61;217245;1295;139643;-92
2023/12/18 20:53:22;;;;;;;24.80;12.30;;;;;;;6.61;100.00;101247.95;216836;1295;140002;-91
2023/12/18 20:58:24;;;;;;;22.80;11.90;;;;;;;6.59;100.00;101254.84;217427;1295;96073;-93
2023/12/18 21:03:24;;;;;;;21.20;11.50;;;;;;;6.56;100.00;101249.84;216867;1295;139717;-92
2023/12/18 21:08:24;;;;;;;21.90;11.00;;;;;;;6.52;100.00;101240.69;217401;1295;138999;-93
2023/12/18 21:13:25;;;;;;;21.90;11.10;;;;;;;6.49;100.00;101231.23;216928;1295;140688;-92
2023/12/18 21:18:26;;;;;;;23.40;11.10;;;;;;;6.44;100.00;101197.06;217549;1296;139539;-90
2023/12/18 21:23:26;;;;;;;21.70;11.40;;;;;;;6.40;100.00;101194.14;217049;1295;140240;-91
2023/12/18 21:28:27;;;;;;;24.80;11.10;;;;;;;6.34;100.00;101216.27;217329;1295;95968;-92
2023/12/18 21:33:28;;;;;;;18.80;10.90;;;;;;;6.29;100.00;101208.47;216926;1294;140231;-92
2023/12/18 21:38:28;;;;;;;32.10;14.70;;;;;;;6.25;100.00;101193.15;217449;1295;139705;-92
2023/12/18 21:43:28;;;;;;;21.30;11.10;;;;;;;6.20;100.00;101185.47;216785;1296;140711;-93
2023/12/18 21:48:30;;;;;;;23.10;11.50;;;;;;;6.15;100.00;101186.89;217282;1295;268654;-92
2023/12/18 21:53:30;;;;;;;23.40;11.50;;;;;;;6.11;100.00;101168.39;216999;1295;140387;-93
2023/12/18 21:58:31;;;;;;;21.60;11.50;;;;;;;6.08;100.00;101164.75;217553;1295;95784;-91
2023/12/18 22:03:31;;;;;;;21.60;11.20;;;;;;;6.05;100.00;101162.52;216811;1295;140000;-94
2023/12/18 22:08:32;;;;;;;19.40;10.30;;;;;;;6.01;100.00;101147.81;217381;1294;139707;-92
2023/12/18 22:13:32;;;;;;;22.00;11.00;;;;;;;5.96;100.00;101153.02;216811;1295;141252;-92
2023/12/18 22:18:33;;;;;;;21.20;11.00;;;;;;;5.93;100.00;101153.98;217496;1295;139275;-92